Time;durP1;ratioP1;P1;durP2;ratioP2;P2;SDS_P1;SDS_P2;PMS_P1;PMS_P2;Temp;Humidity;BMP_temperature;BMP_pressure;BME280_temperature;BME280_humidity;BME280_pressure;Samples;Min_cycle;Max_cycle;Signal;HPM_P1;HPM_P2
2023/12/04 00:00:46;;;;;;;17.38;8.13;;;0.30;99.90;;;;;;5045288;28;20057;-83
2023/12/04 00:03:11;;;;;;;20.35;10.13;;;0.30;99.90;;;;;;5058679;28;20524;-82
2023/12/04 00:05:37;;;;;;;20.60;9.98;;;0.30;99.90;;;;;;5078171;28;20129;-84
2023/12/04 00:08:03;;;;;;;20.10;9.88;;;0.30;99.90;;;;;;5047231;28;20060;-83
2023/12/04 00:10:28;;;;;;;20.08;10.35;;;0.30;99.90;;;;;;5065539;28;20096;-84
2023/12/04 00:12:54;;;;;;;18.70;9.40;;;0.20;99.90;;;;;;5027783;28;20028;-85
2023/12/04 00:15:21;;;;;;;17.58;8.80;;;0.20;99.90;;;;;;5030275;28;20117;-83
2023/12/04 00:17:46;;;;;;;18.63;10.30;;;0.30;99.90;;;;;;5078353;28;20159;-82
2023/12/04 00:20:12;;;;;;;17.67;9.18;;;0.20;99.90;;;;;;5044809;28;20559;-83
2023/12/04 00:22:38;;;;;;;17.20;8.88;;;0.20;99.90;;;;;;5078975;28;20036;-84
2023/12/04 00:25:06;;;;;;;17.48;9.23;;;0.20;99.90;;;;;;5056349;28;20032;-84
2023/12/04 00:27:32;;;;;;;23.92;10.77;;;0.20;99.90;;;;;;5027865;28;20284;-82
2023/12/04 00:29:57;;;;;;;17.77;8.52;;;0.20;99.90;;;;;;5079304;28;20037;-84
2023/12/04 00:32:24;;;;;;;15.65;7.60;;;0.20;99.90;;;;;;5027284;28;20021;-82
2023/12/04 00:34:50;;;;;;;16.13;8.18;;;0.20;99.90;;;;;;5064539;28;20029;-81
2023/12/04 00:37:15;;;;;;;16.67;8.85;;;0.20;99.90;;;;;;5056470;28;20029;-83
2023/12/04 00:39:41;;;;;;;14.18;7.75;;;0.20;99.90;;;;;;5053439;28;20044;-82
2023/12/04 00:42:07;;;;;;;22.05;10.02;;;0.20;99.90;;;;;;5046431;28;20108;-81
2023/12/04 00:44:32;;;;;;;19.88;9.55;;;0.20;99.90;;;;;;5077123;28;20048;-82
2023/12/04 00:46:58;;;;;;;16.15;8.05;;;0.20;99.90;;;;;;5076930;28;20489;-84
2023/12/04 00:49:24;;;;;;;15.63;7.72;;;0.20;99.90;;;;;;5046520;28;20028;-83
2023/12/04 00:51:50;;;;;;;15.15;6.95;;;0.20;99.90;;;;;;5043472;28;20057;-81
2023/12/04 00:54:15;;;;;;;15.20;8.05;;;0.20;99.90;;;;;;5049109;28;20033;-84
2023/12/04 00:56:41;;;;;;;22.30;10.65;;;0.20;99.90;;;;;;5045016;28;20036;-83
2023/12/04 00:59:10;;;;;;;16.63;9.13;;;0.10;99.90;;;;;;5053138;28;20021;-87
2023/12/04 01:01:36;;;;;;;18.42;9.50;;;0.20;99.90;;;;;;5045586;28;20072;-83
2023/12/04 01:04:02;;;;;;;16.05;8.40;;;0.20;99.90;;;;;;5064881;28;20045;-86
2023/12/04 01:06:29;;;;;;;22.83;10.40;;;0.20;99.90;;;;;;5042461;28;20043;-85
2023/12/04 01:08:55;;;;;;;17.95;8.13;;;0.20;99.90;;;;;;5078788;28;20091;-81
2023/12/04 01:11:21;;;;;;;17.38;8.43;;;0.20;99.90;;;;;;5063500;28;20021;-85
2023/12/04 01:13:48;;;;;;;14.13;7.57;;;0.10;99.90;;;;;;5057995;28;20057;-83
2023/12/04 01:16:14;;;;;;;16.02;7.10;;;0.10;99.90;;;;;;5077892;28;20021;-82
2023/12/04 01:18:41;;;;;;;16.17;8.05;;;0.10;99.90;;;;;;5076597;28;20029;-85
2023/12/04 01:21:08;;;;;;;15.15;7.22;;;0.10;99.90;;;;;;5026477;28;20068;-83
2023/12/04 01:23:35;;;;;;;14.90;7.30;;;0.10;99.90;;;;;;5042052;28;20120;-83
2023/12/04 01:26:01;;;;;;;16.58;8.02;;;0.10;99.90;;;;;;5043179;28;20028;-83
2023/12/04 01:28:27;;;;;;;14.90;6.78;;;0.10;99.90;;;;;;5058480;28;20033;-84
2023/12/04 01:30:53;;;;;;;12.73;6.00;;;0.10;99.90;;;;;;5077364;28;20047;-84
2023/12/04 01:33:18;;;;;;;15.20;6.90;;;0.10;99.90;;;;;;5063816;28;20120;-83
2023/12/04 01:35:44;;;;;;;15.80;6.28;;;0.10;99.90;;;;;;5075669;28;20029;-85
2023/12/04 01:38:10;;;;;;;11.35;5.47;;;0.20;99.90;;;;;;5043598;28;20139;-83
2023/12/04 01:40:35;;;;;;;14.82;5.95;;;0.20;99.90;;;;;;5063715;28;20021;-85
2023/12/04 01:43:01;;;;;;;16.45;7.22;;;0.20;99.90;;;;;;5043632;28;20398;-84
2023/12/04 01:45:27;;;;;;;12.73;6.28;;;0.20;99.90;;;;;;5060909;28;20121;-85
2023/12/04 01:47:53;;;;;;;13.35;5.70;;;0.20;99.90;;;;;;5063273;28;20119;-84
2023/12/04 01:50:19;;;;;;;11.30;5.70;;;0.30;99.90;;;;;;5062522;28;20461;-83
2023/12/04 01:52:46;;;;;;;12.38;5.43;;;0.30;99.90;;;;;;5043783;28;20469;-84
2023/12/04 01:55:13;;;;;;;11.45;5.03;;;0.20;99.90;;;;;;5042309;28;20079;-83
2023/12/04 01:57:39;;;;;;;13.02;5.03;;;0.20;99.90;;;;;;5043512;28;20032;-82
2023/12/04 02:00:11;;;;;;;11.82;5.10;;;0.30;99.90;;;;;;5075746;28;20045;-83
2023/12/04 02:02:38;;;;;;;13.73;6.32;;;0.20;99.90;;;;;;5075885;28;20040;-83
2023/12/04 02:05:07;;;;;;;13.23;5.93;;;0.20;99.90;;;;;;5077380;28;20496;-84
2023/12/04 02:07:34;;;;;;;11.35;5.70;;;0.30;99.90;;;;;;5064021;28;20064;-83
2023/12/04 02:10:00;;;;;;;12.70;6.40;;;0.30;99.90;;;;;;5076974;28;20128;-84
2023/12/04 02:12:25;;;;;;;13.43;6.13;;;0.20;99.90;;;;;;5044519;28;20139;-85
2023/12/04 02:14:52;;;;;;;14.20;6.80;;;0.20;99.90;;;;;;5043800;28;20045;-83
2023/12/04 02:17:19;;;;;;;13.40;7.65;;;0.20;99.90;;;;;;5023819;28;20546;-84
2023/12/04 02:19:45;;;;;;;14.68;6.65;;;0.20;99.90;;;;;;5078070;28;20035;-83
2023/12/04 02:22:11;;;;;;;13.38;6.38;;;0.30;99.90;;;;;;5064529;28;20392;-83
2023/12/04 02:24:37;;;;;;;13.23;7.07;;;0.30;99.90;;;;;;5077941;28;20112;-85
2023/12/04 02:27:14;;;;;;;12.07;6.03;;;0.30;99.90;;;;;;5078272;28;20033;-81
2023/12/04 02:29:47;;;;;;;11.40;5.43;;;0.30;99.90;;;;;;5076592;28;20487;-83
2023/12/04 02:32:17;;;;;;;13.30;5.90;;;0.30;99.90;;;;;;5041376;28;20442;-83
2023/12/04 02:34:45;;;;;;;11.65;5.82;;;0.30;99.90;;;;;;5063711;28;20110;-83
2023/12/04 02:37:12;;;;;;;14.05;7.70;;;0.30;99.90;;;;;;5042197;28;20025;-84
2023/12/04 02:39:38;;;;;;;15.15;6.95;;;0.20;99.90;;;;;;5025673;28;20091;-84
2023/12/04 02:42:04;;;;;;;13.60;6.88;;;0.30;99.90;;;;;;5026815;28;20017;-83
2023/12/04 02:44:29;;;;;;;13.43;5.85;;;0.20;99.90;;;;;;5045366;28;20505;-83
2023/12/04 02:46:55;;;;;;;11.38;5.93;;;0.20;99.90;;;;;;5062184;28;20076;-84
2023/12/04 02:49:21;;;;;;;11.23;5.47;;;0.20;99.90;;;;;;5067154;28;20427;-83
2023/12/04 02:51:47;;;;;;;9.82;4.68;;;0.20;99.90;;;;;;5066960;28;20032;-82
2023/12/04 02:54:12;;;;;;;9.77;5.32;;;0.30;99.90;;;;;;5081275;28;20075;-82
2023/12/04 02:56:38;;;;;;;10.55;5.25;;;0.20;99.90;;;;;;5081640;28;20512;-83
2023/12/04 02:59:03;;;;;;;11.30;5.20;;;0.20;99.90;;;;;;5048116;28;20496;-82
2023/12/04 03:01:30;;;;;;;9.73;4.93;;;0.30;99.90;;;;;;5029915;28;20042;-83
2023/12/04 03:03:55;;;;;;;13.18;5.80;;;0.20;99.90;;;;;;5080694;28;20061;-84
2023/12/04 03:06:21;;;;;;;13.93;6.60;;;0.30;99.90;;;;;;5029670;28;20029;-83
2023/12/04 03:08:46;;;;;;;13.23;6.18;;;0.30;99.90;;;;;;5079280;28;20033;-84
2023/12/04 03:11:12;;;;;;;11.57;5.60;;;0.20;99.90;;;;;;5048089;28;20079;-83
2023/12/04 03:13:38;;;;;;;10.10;5.00;;;0.20;99.90;;;;;;5044680;28;20033;-85
2023/12/04 03:16:04;;;;;;;11.55;5.80;;;0.30;99.90;;;;;;5047387;28;20462;-83
2023/12/04 03:18:30;;;;;;;12.57;6.38;;;0.20;99.90;;;;;;5066516;28;20066;-84
2023/12/04 03:20:56;;;;;;;15.30;7.65;;;0.30;99.90;;;;;;5079779;28;20381;-84
2023/12/04 03:23:21;;;;;;;15.13;8.13;;;0.30;99.90;;;;;;5044722;28;20036;-84
2023/12/04 03:25:47;;;;;;;16.70;8.65;;;0.30;99.90;;;;;;5048545;28;20028;-83
2023/12/04 03:28:15;;;;;;;13.15;7.07;;;0.30;99.90;;;;;;5045833;28;20036;-84
2023/12/04 03:30:45;;;;;;;13.93;7.68;;;0.30;99.90;;;;;;5045731;28;20151;-83
2023/12/04 03:33:10;;;;;;;12.77;6.53;;;0.30;99.90;;;;;;5050358;28;20029;-83
2023/12/04 03:35:36;;;;;;;15.27;7.82;;;0.30;99.90;;;;;;5063286;28;20025;-83
2023/12/04 03:38:02;;;;;;;11.60;6.07;;;0.30;99.90;;;;;;5049973;28;20040;-82
2023/12/04 03:40:27;;;;;;;13.07;6.70;;;0.30;99.90;;;;;;5066274;28;20036;-83
2023/12/04 03:42:53;;;;;;;10.75;5.25;;;0.30;99.90;;;;;;5075774;28;20095;-83
2023/12/04 03:45:19;;;;;;;12.48;5.95;;;0.30;99.90;;;;;;5043558;28;20047;-83
2023/12/04 03:47:44;;;;;;;11.90;5.93;;;0.30;99.90;;;;;;5079260;28;20052;-84
2023/12/04 03:50:10;;;;;;;10.43;4.78;;;0.30;99.90;;;;;;5065551;28;20359;-82
2023/12/04 03:52:35;;;;;;;10.68;5.55;;;0.30;99.90;;;;;;5045835;28;20021;-82
2023/12/04 03:55:01;;;;;;;10.70;5.50;;;0.30;99.90;;;;;;5065693;28;20056;-83
2023/12/04 03:57:27;;;;;;;12.50;6.03;;;0.30;99.90;;;;;;5047377;28;20032;-83
2023/12/04 03:59:53;;;;;;;10.00;5.25;;;0.30;99.90;;;;;;5059035;28;20044;-83
2023/12/04 04:02:18;;;;;;;11.93;6.13;;;0.30;99.90;;;;;;5027940;28;20037;-82
2023/12/04 04:04:44;;;;;;;9.73;4.70;;;0.30;99.90;;;;;;5045842;28;20037;-83
2023/12/04 04:07:09;;;;;;;9.23;5.03;;;0.30;99.90;;;;;;5027062;28;20032;-84
2023/12/04 04:09:35;;;;;;;9.35;5.30;;;0.30;99.90;;;;;;5079022;28;20025;-84
2023/12/04 04:12:01;;;;;;;10.30;5.18;;;0.30;99.90;;;;;;5028891;28;20091;-82
2023/12/04 04:14:26;;;;;;;10.75;4.97;;;0.30;99.90;;;;;;5044869;28;20106;-84
2023/12/04 04:16:52;;;;;;;8.25;4.75;;;0.30;99.90;;;;;;5064230;28;20355;-84
2023/12/04 04:19:18;;;;;;;8.75;4.95;;;0.30;99.90;;;;;;5029684;28;20027;-83
2023/12/04 04:21:43;;;;;;;10.15;4.82;;;0.30;99.90;;;;;;5079605;28;20036;-82
2023/12/04 04:24:09;;;;;;;9.82;5.25;;;0.30;99.90;;;;;;5045853;28;20044;-83
2023/12/04 04:26:35;;;;;;;8.57;4.20;;;0.30;99.90;;;;;;5066109;28;20021;-83
2023/12/04 04:29:00;;;;;;;10.60;4.03;;;0.30;99.90;;;;;;5045214;28;20108;-82
2023/12/04 04:31:26;;;;;;;6.20;3.55;;;0.30;99.90;;;;;;5045304;28;20016;-82
2023/12/04 04:33:51;;;;;;;10.45;4.65;;;0.30;99.90;;;;;;5024832;28;20037;-84
2023/12/04 04:36:17;;;;;;;9.27;4.97;;;0.30;99.90;;;;;;5045179;28;20017;-82
2023/12/04 04:38:43;;;;;;;9.00;4.78;;;0.30;99.90;;;;;;5065028;28;20037;-84
2023/12/04 04:41:14;;;;;;;9.05;4.03;;;0.30;99.90;;;;;;5025842;28;20077;-84
2023/12/04 04:43:40;;;;;;;8.77;4.18;;;0.20;99.90;;;;;;5075796;28;20090;-84
2023/12/04 04:46:06;;;;;;;11.13;5.10;;;0.30;99.90;;;;;;5079740;28;20021;-82
2023/12/04 04:48:31;;;;;;;9.30;4.63;;;0.30;99.90;;;;;;5058636;28;20045;-84
2023/12/04 04:50:57;;;;;;;10.27;5.43;;;0.30;99.90;;;;;;5078984;28;20053;-83
2023/12/04 04:53:23;;;;;;;8.85;4.78;;;0.20;99.90;;;;;;5062996;28;20496;-83
2023/12/04 04:55:48;;;;;;;9.48;4.47;;;0.30;99.90;;;;;;5048247;28;20055;-84
2023/12/04 04:58:14;;;;;;;7.95;3.47;;;0.30;99.90;;;;;;5062759;28;20596;-84
2023/12/04 05:00:40;;;;;;;7.25;4.15;;;0.20;99.90;;;;;;5026837;28;20045;-84
2023/12/04 05:03:06;;;;;;;8.27;4.00;;;0.20;99.90;;;;;;5065222;28;20049;-84
2023/12/04 05:05:31;;;;;;;9.27;4.57;;;0.20;99.90;;;;;;5042181;28;20120;-83
2023/12/04 05:07:57;;;;;;;7.63;3.80;;;0.20;99.90;;;;;;5028236;28;20029;-83
2023/12/04 05:10:23;;;;;;;8.30;3.97;;;0.20;99.90;;;;;;5028524;28;20587;-84
2023/12/04 05:12:48;;;;;;;8.90;4.75;;;0.20;99.90;;;;;;5062234;28;20477;-84
2023/12/04 05:15:14;;;;;;;9.45;4.38;;;0.20;99.90;;;;;;5028428;28;20032;-84
2023/12/04 05:17:40;;;;;;;9.30;4.43;;;0.20;99.90;;;;;;5029826;28;20358;-83
2023/12/04 05:20:07;;;;;;;8.25;4.47;;;0.30;99.90;;;;;;5062980;28;20025;-84
2023/12/04 05:22:34;;;;;;;10.18;4.10;;;0.20;99.90;;;;;;5060377;28;20021;-83
2023/12/04 05:25:00;;;;;;;9.60;4.40;;;0.20;99.90;;;;;;5027943;28;20048;-83
2023/12/04 05:27:25;;;;;;;7.32;3.63;;;0.30;99.90;;;;;;5058957;28;20017;-84
2023/12/04 05:29:51;;;;;;;6.68;3.28;;;0.20;99.90;;;;;;5041647;28;20143;-84
2023/12/04 05:32:17;;;;;;;6.63;3.28;;;0.20;99.90;;;;;;5044260;28;20021;-83
2023/12/04 05:34:42;;;;;;;6.75;3.28;;;0.20;99.90;;;;;;5063929;28;20044;-84
2023/12/04 05:37:08;;;;;;;6.13;2.88;;;0.20;99.90;;;;;;5027405;28;20032;-83
2023/12/04 05:39:34;;;;;;;5.45;3.00;;;0.30;99.90;;;;;;5062137;28;20473;-83
2023/12/04 05:41:59;;;;;;;5.63;2.50;;;0.20;99.90;;;;;;5044056;28;20381;-83
2023/12/04 05:44:25;;;;;;;6.55;3.53;;;0.20;99.90;;;;;;5045303;28;20037;-83
2023/12/04 05:46:51;;;;;;;7.63;3.53;;;0.20;99.90;;;;;;5045717;28;20214;-83
2023/12/04 05:49:16;;;;;;;9.02;4.10;;;0.20;99.90;;;;;;5063884;28;20029;-83
2023/12/04 05:51:42;;;;;;;5.95;2.80;;;0.30;99.90;;;;;;5027266;28;20036;-84
2023/12/04 05:54:08;;;;;;;7.10;2.25;;;0.20;99.90;;;;;;5028098;28;20050;-83
2023/12/04 05:56:34;;;;;;;5.97;2.80;;;0.20;99.90;;;;;;5043300;28;20032;-83
2023/12/04 05:59:00;;;;;;;7.85;3.45;;;0.20;99.90;;;;;;5058630;28;20029;-84
2023/12/04 06:01:26;;;;;;;5.93;2.97;;;0.20;99.90;;;;;;5023209;28;20076;-83
2023/12/04 06:03:51;;;;;;;6.40;3.70;;;0.20;99.90;;;;;;5025866;28;20059;-85
2023/12/04 06:06:17;;;;;;;9.45;5.18;;;0.30;99.90;;;;;;5063039;28;20103;-84
2023/12/04 06:08:45;;;;;;;7.50;3.85;;;0.30;99.90;;;;;;5061976;28;20087;-82
2023/12/04 06:11:11;;;;;;;6.95;3.55;;;0.30;99.90;;;;;;5061125;28;20040;-83
2023/12/04 06:13:36;;;;;;;7.57;3.50;;;0.30;99.90;;;;;;5057236;28;20029;-84
2023/12/04 06:16:02;;;;;;;7.75;4.22;;;0.30;99.90;;;;;;5041025;28;20029;-83
2023/12/04 06:18:28;;;;;;;9.05;3.70;;;0.30;99.90;;;;;;5044139;28;20025;-83
2023/12/04 06:20:53;;;;;;;7.18;3.55;;;0.30;99.90;;;;;;5040163;28;20030;-84
2023/12/04 06:23:19;;;;;;;6.93;3.45;;;0.30;99.90;;;;;;5062833;28;20182;-84
2023/12/04 06:25:45;;;;;;;6.15;3.55;;;0.30;99.90;;;;;;5061870;28;20041;-82
2023/12/04 06:28:11;;;;;;;6.03;3.13;;;0.40;99.90;;;;;;5074048;28;20052;-82
2023/12/04 06:30:37;;;;;;;5.85;2.60;;;0.30;99.90;;;;;;5043490;28;20064;-83
2023/12/04 06:33:03;;;;;;;8.10;3.90;;;0.40;99.90;;;;;;5042816;28;20033;-83
2023/12/04 06:35:29;;;;;;;6.13;2.55;;;0.40;99.90;;;;;;5074950;28;20514;-83
2023/12/04 06:37:55;;;;;;;6.68;2.88;;;0.30;99.90;;;;;;5028102;28;20097;-83
2023/12/04 06:40:22;;;;;;;5.57;2.78;;;0.30;99.90;;;;;;5042379;28;20486;-83
2023/12/04 06:42:48;;;;;;;5.57;2.55;;;0.40;99.90;;;;;;5062374;28;20036;-85
2023/12/04 06:45:14;;;;;;;6.63;3.15;;;0.30;99.90;;;;;;5062338;28;20121;-82
2023/12/04 06:47:43;;;;;;;6.28;3.38;;;0.40;99.90;;;;;;5059052;28;20025;-82
2023/12/04 06:50:09;;;;;;;5.80;2.90;;;0.40;99.90;;;;;;5063184;28;20592;-82
2023/12/04 06:52:34;;;;;;;5.10;2.42;;;0.40;99.30;;;;;;5022977;28;20028;-83
2023/12/04 06:55:00;;;;;;;5.80;2.78;;;0.40;98.80;;;;;;5023616;28;20124;-83
2023/12/04 06:57:26;;;;;;;4.93;2.78;;;0.40;98.10;;;;;;5027255;28;20053;-83
2023/12/04 06:59:52;;;;;;;7.03;3.05;;;0.40;97.90;;;;;;5062767;28;20458;-83
2023/12/04 07:02:18;;;;;;;6.53;3.60;;;0.50;97.70;;;;;;5074768;28;20025;-83
2023/12/04 07:04:43;;;;;;;6.68;2.70;;;0.40;97.20;;;;;;5025522;28;20083;-83
2023/12/04 07:07:09;;;;;;;5.35;2.78;;;0.50;96.50;;;;;;5062106;28;20024;-83
2023/12/04 07:09:35;;;;;;;5.75;2.90;;;0.40;96.60;;;;;;5074084;28;20492;-83
2023/12/04 07:12:02;;;;;;;4.88;2.58;;;0.50;96.40;;;;;;5061280;28;20028;-84
2023/12/04 07:14:28;;;;;;;5.70;2.60;;;0.40;96.00;;;;;;5061428;28;20060;-83
2023/12/04 07:16:53;;;;;;;4.90;2.35;;;0.50;95.10;;;;;;5037451;28;20500;-83
2023/12/04 07:19:19;;;;;;;5.45;2.53;;;0.50;95.10;;;;;;5025031;28;20063;-83
2023/12/04 07:21:45;;;;;;;6.07;2.80;;;0.50;95.10;;;;;;5062207;28;20040;-83
2023/12/04 07:24:11;;;;;;;5.95;2.95;;;0.50;94.70;;;;;;5073546;28;20037;-84
2023/12/04 07:26:38;;;;;;;6.07;3.05;;;0.50;94.20;;;;;;5060934;28;20075;-83
2023/12/04 07:29:03;;;;;;;4.88;2.60;;;0.50;93.80;;;;;;5061622;28;20065;-83
2023/12/04 07:31:30;;;;;;;5.25;2.72;;;0.50;93.90;;;;;;5022648;28;20059;-84
2023/12/04 07:33:56;;;;;;;6.03;2.58;;;0.50;93.90;;;;;;5037909;28;20086;-83
2023/12/04 07:36:23;;;;;;;7.25;4.38;;;0.60;93.10;;;;;;5023577;28;20036;-83
2023/12/04 07:38:50;;;;;;;7.32;3.47;;;0.50;93.20;;;;;;5054772;28;20029;-84
2023/12/04 07:41:17;;;;;;;5.82;2.85;;;0.50;92.60;;;;;;5062457;28;20385;-84
2023/12/04 07:43:43;;;;;;;5.30;2.78;;;0.50;92.80;;;;;;5039650;28;20048;-84
2023/12/04 07:46:13;;;;;;;5.85;2.58;;;0.50;93.10;;;;;;5023447;28;20476;-85
2023/12/04 07:48:39;;;;;;;5.47;2.35;;;0.50;93.00;;;;;;5073616;28;20048;-83
2023/12/04 07:51:06;;;;;;;4.80;2.20;;;0.50;93.10;;;;;;5045936;28;20045;-83
2023/12/04 07:53:32;;;;;;;3.58;1.98;;;0.50;93.20;;;;;;5053943;28;20040;-84
2023/12/04 07:56:00;;;;;;;5.30;1.75;;;0.50;93.50;;;;;;5070712;28;20033;-83
2023/12/04 07:58:25;;;;;;;5.28;2.15;;;0.50;93.80;;;;;;5038302;28;20086;-83
2023/12/04 08:00:51;;;;;;;4.88;2.40;;;0.50;93.60;;;;;;5044385;28;20067;-83
2023/12/04 08:03:17;;;;;;;8.18;3.53;;;0.60;93.00;;;;;;5056506;28;20400;-83
2023/12/04 08:05:42;;;;;;;6.57;2.70;;;0.60;92.30;;;;;;5071827;28;20098;-82
2023/12/04 08:08:08;;;;;;;4.85;2.00;;;0.60;92.80;;;;;;5063014;28;20029;-83
2023/12/04 08:10:34;;;;;;;6.38;2.63;;;0.60;93.10;;;;;;5061793;28;20477;-83
2023/12/04 08:13:00;;;;;;;4.97;2.22;;;0.60;93.20;;;;;;5023107;28;20542;-84
2023/12/04 08:15:25;;;;;;;8.65;4.32;;;0.60;93.10;;;;;;5039539;28;20037;-83
2023/12/04 08:17:51;;;;;;;7.85;3.88;;;0.70;92.60;;;;;;5069862;28;20036;-84
2023/12/04 08:20:17;;;;;;;6.18;3.40;;;0.70;92.60;;;;;;5062091;28;20090;-83
2023/12/04 08:22:45;;;;;;;6.63;3.00;;;0.70;93.20;;;;;;5054851;28;20103;-83
2023/12/04 08:25:11;;;;;;;8.60;3.90;;;0.70;93.60;;;;;;5021897;28;20033;-84
2023/12/04 08:27:37;;;;;;;7.35;3.92;;;0.70;93.10;;;;;;5075037;28;20078;-83
2023/12/04 08:30:05;;;;;;;7.03;3.53;;;0.70;92.90;;;;;;5040499;28;20033;-83
2023/12/04 08:32:30;;;;;;;9.88;4.20;;;0.80;92.10;;;;;;5052990;28;20024;-84
2023/12/04 08:34:56;;;;;;;9.02;4.10;;;0.80;92.20;;;;;;5060505;28;20470;-83
2023/12/04 08:37:21;;;;;;;7.47;4.40;;;0.70;92.40;;;;;;5022706;28;20032;-82
2023/12/04 08:39:47;;;;;;;7.50;3.72;;;0.80;92.40;;;;;;5021768;28;20032;-83
2023/12/04 08:42:13;;;;;;;5.13;2.83;;;0.80;92.80;;;;;;5039096;28;20393;-83
2023/12/04 08:44:40;;;;;;;7.20;3.25;;;0.70;93.20;;;;;;5060483;28;20175;-84
2023/12/04 08:47:06;;;;;;;8.35;4.15;;;0.80;93.50;;;;;;5073181;28;20033;-83
2023/12/04 08:49:32;;;;;;;7.32;3.95;;;0.80;93.10;;;;;;5055531;28;20044;-83
2023/12/04 08:51:58;;;;;;;5.30;2.60;;;0.80;93.10;;;;;;5060296;28;20040;-83
2023/12/04 08:54:24;;;;;;;6.45;3.80;;;0.80;93.00;;;;;;5071679;28;20052;-82
2023/12/04 08:56:50;;;;;;;8.73;4.68;;;0.90;92.80;;;;;;5052550;28;20029;-83
2023/12/04 08:59:16;;;;;;;7.00;3.63;;;0.90;92.70;;;;;;5070262;28;20059;-83
2023/12/04 09:01:42;;;;;;;7.88;3.95;;;0.90;92.20;;;;;;5071426;28;20050;-83
2023/12/04 09:04:09;;;;;;;8.00;4.15;;;0.90;91.90;;;;;;5022519;28;20631;-83
2023/12/04 09:06:35;;;;;;;7.30;3.80;;;0.90;91.80;;;;;;5040172;28;20025;-83
2023/12/04 09:09:02;;;;;;;9.60;4.50;;;0.90;91.70;;;;;;5055115;28;20037;-82
2023/12/04 09:11:28;;;;;;;8.80;4.70;;;0.90;92.00;;;;;;5070558;28;20053;-82
2023/12/04 09:13:54;;;;;;;8.10;3.97;;;0.90;92.00;;;;;;5051182;28;20032;-83
2023/12/04 09:16:20;;;;;;;6.50;3.85;;;0.90;92.00;;;;;;5038749;28;20434;-82
2023/12/04 09:18:46;;;;;;;7.47;3.95;;;0.90;92.10;;;;;;5071580;28;20037;-82
2023/12/04 09:21:12;;;;;;;6.50;3.30;;;1.00;90.70;;;;;;5059310;28;20027;-82
2023/12/04 09:23:38;;;;;;;7.30;3.85;;;1.00;90.70;;;;;;5020932;28;20037;-83
2023/12/04 09:26:04;;;;;;;6.78;2.75;;;1.00;91.20;;;;;;5022030;28;20120;-83
2023/12/04 09:28:29;;;;;;;5.38;2.45;;;1.00;91.70;;;;;;5021253;28;20484;-82
2023/12/04 09:30:55;;;;;;;6.32;3.05;;;1.00;92.30;;;;;;5060634;28;20029;-83
2023/12/04 09:33:21;;;;;;;4.85;2.47;;;1.00;92.50;;;;;;5019388;28;20029;-83
2023/12/04 09:35:46;;;;;;;4.45;2.38;;;1.00;92.70;;;;;;5036983;28;20036;-83
2023/12/04 09:38:12;;;;;;;6.57;2.92;;;1.00;92.10;;;;;;5007193;28;20035;-83
2023/12/04 09:40:38;;;;;;;4.95;2.83;;;1.10;91.60;;;;;;5038470;28;20059;-82
2023/12/04 09:43:05;;;;;;;4.55;2.00;;;1.10;91.50;;;;;;5039317;28;20071;-82
2023/12/04 09:45:32;;;;;;;5.38;2.50;;;1.10;91.80;;;;;;5069809;28;20033;-83
2023/12/04 09:47:59;;;;;;;5.53;2.78;;;1.10;91.10;;;;;;5058288;28;20397;-82
2023/12/04 09:50:25;;;;;;;7.50;3.30;;;1.20;90.50;;;;;;5034705;28;20060;-82
2023/12/04 09:52:52;;;;;;;6.00;2.63;;;1.30;90.50;;;;;;5070131;28;20530;-82
2023/12/04 09:55:18;;;;;;;6.43;3.25;;;1.20;91.10;;;;;;5022672;28;20029;-82
2023/12/04 09:57:45;;;;;;;5.90;2.47;;;1.20;91.10;;;;;;5050739;28;20224;-82
2023/12/04 10:00:13;;;;;;;4.15;1.92;;;1.30;91.20;;;;;;5071095;28;20037;-82
2023/12/04 10:02:40;;;;;;;3.47;1.75;;;1.30;91.70;;;;;;5067047;28;20474;-82
2023/12/04 10:05:07;;;;;;;4.75;2.20;;;1.30;91.90;;;;;;5050308;28;20087;-82
2023/12/04 10:07:32;;;;;;;4.70;1.88;;;1.30;92.30;;;;;;5034687;28;20021;-82
2023/12/04 10:09:58;;;;;;;4.80;2.10;;;1.30;92.50;;;;;;5052147;28;20032;-82
2023/12/04 10:12:25;;;;;;;4.28;2.50;;;1.30;91.80;;;;;;5057660;28;20544;-82
2023/12/04 10:15:04;;;;;;;5.50;2.38;;;1.40;91.80;;;;;;5050155;28;20048;-82
2023/12/04 10:17:37;;;;;;;4.05;1.92;;;1.50;91.70;;;;;;5036736;28;20037;-84
2023/12/04 10:20:17;;;;;;;5.20;1.95;;;1.50;91.50;;;;;;5068391;28;20040;-82
2023/12/04 10:22:57;;;;;;;4.13;1.92;;;1.50;91.60;;;;;;5037280;28;20029;-82
2023/12/04 10:25:25;;;;;;;4.43;1.92;;;1.50;91.30;;;;;;5070498;28;20095;-82
2023/12/04 10:27:52;;;;;;;4.95;2.25;;;1.60;91.50;;;;;;5054602;28;20040;-82
2023/12/04 10:30:30;;;;;;;4.20;1.63;;;1.50;90.70;;;;;;5019318;28;20120;-82
2023/12/04 10:33:00;;;;;;;6.03;2.22;;;1.60;90.20;;;;;;5052786;28;20060;-82
2023/12/04 10:35:28;;;;;;;7.22;2.17;;;1.60;90.70;;;;;;5044303;28;20118;-82
2023/12/04 10:37:55;;;;;;;3.90;1.58;;;1.60;90.40;;;;;;5052770;28;20448;-82
2023/12/04 10:40:29;;;;;;;4.82;1.67;;;1.60;90.50;;;;;;5070421;28;20040;-82
2023/12/04 10:43:17;;;;;;;4.65;1.73;;;1.60;90.00;;;;;;5048847;28;20083;-83
2023/12/04 10:45:45;;;;;;;4.88;2.10;;;1.60;90.00;;;;;;5069496;28;20597;-82
2023/12/04 10:48:11;;;;;;;4.28;2.15;;;1.60;89.30;;;;;;5054412;28;20033;-82
2023/12/04 10:50:39;;;;;;;4.25;1.98;;;1.60;89.60;;;;;;5054115;28;20029;-82
2023/12/04 10:53:09;;;;;;;5.03;2.63;;;1.60;87.90;;;;;;5035276;28;20029;-82
2023/12/04 10:55:36;;;;;;;4.97;2.38;;;1.60;87.60;;;;;;5047258;28;20025;-84
2023/12/04 10:58:07;;;;;;;5.60;3.15;;;1.60;87.90;;;;;;5068078;28;20448;-83
2023/12/04 11:00:34;;;;;;;5.97;2.75;;;1.60;86.00;;;;;;5033663;28;20136;-82
2023/12/04 11:03:13;;;;;;;4.15;2.45;;;1.60;87.10;;;;;;5059825;28;20032;-82
2023/12/04 11:05:40;;;;;;;4.85;1.95;;;1.60;87.00;;;;;;5070349;28;20128;-82
2023/12/04 11:08:11;;;;;;;2.97;1.30;;;1.70;86.20;;;;;;5066927;28;20059;-82
2023/12/04 11:10:42;;;;;;;4.60;1.85;;;1.70;86.80;;;;;;5055643;28;20029;-83
2023/12/04 11:13:14;;;;;;;5.35;2.28;;;1.70;87.00;;;;;;5071014;28;20028;-83
2023/12/04 11:15:41;;;;;;;4.07;2.13;;;1.70;87.40;;;;;;5040072;28;20458;-82
2023/12/04 11:18:11;;;;;;;4.18;1.90;;;1.70;87.40;;;;;;5073647;28;20107;-82
2023/12/04 11:20:48;;;;;;;3.70;1.50;;;1.70;87.10;;;;;;5056343;28;20032;-82
2023/12/04 11:23:15;;;;;;;3.72;1.33;;;1.70;87.90;;;;;;5056190;28;20036;-82
2023/12/04 11:25:43;;;;;;;3.25;1.48;;;1.70;88.70;;;;;;5039843;28;20037;-83
2023/12/04 11:28:09;;;;;;;4.38;2.05;;;1.70;87.50;;;;;;5074132;28;20489;-82
2023/12/04 11:30:36;;;;;;;4.22;1.80;;;1.80;87.10;;;;;;5040883;28;20028;-82
2023/12/04 11:33:02;;;;;;;4.50;1.95;;;1.70;86.30;;;;;;5039996;28;20037;-82
2023/12/04 11:35:28;;;;;;;4.50;1.58;;;1.70;86.20;;;;;;5005653;28;20036;-83
2023/12/04 11:37:54;;;;;;;3.40;1.48;;;1.70;86.90;;;;;;5041666;28;20036;-82
2023/12/04 11:40:21;;;;;;;4.88;1.98;;;1.80;86.70;;;;;;5056842;28;20021;-82
2023/12/04 11:42:47;;;;;;;3.45;1.63;;;1.70;87.30;;;;;;5027918;28;20095;-82
2023/12/04 11:45:23;;;;;;;3.60;1.85;;;1.80;86.90;;;;;;5073257;28;20079;-83
2023/12/04 11:47:55;;;;;;;4.85;1.80;;;1.80;86.70;;;;;;5040083;28;20119;-83
2023/12/04 11:50:21;;;;;;;5.35;2.28;;;1.90;83.30;;;;;;5056739;28;20053;-84
2023/12/04 11:52:47;;;;;;;5.18;2.72;;;1.80;84.10;;;;;;5022706;28;20032;-82
2023/12/04 11:55:22;;;;;;;3.95;1.88;;;1.80;84.30;;;;;;5073358;28;20032;-82
2023/12/04 11:57:50;;;;;;;4.93;2.67;;;1.70;85.30;;;;;;5058605;28;20087;-83
2023/12/04 12:00:19;;;;;;;5.07;2.67;;;1.80;83.40;;;;;;5038694;28;20045;-82
2023/12/04 12:03:01;;;;;;;5.03;2.03;;;1.80;83.70;;;;;;5040561;28;20033;-81
2023/12/04 12:05:27;;;;;;;5.20;2.63;;;1.80;83.90;;;;;;5054007;28;20033;-82
2023/12/04 12:07:54;;;;;;;4.82;2.40;;;1.80;82.30;;;;;;5062963;28;20383;-82
2023/12/04 12:10:20;;;;;;;5.07;2.35;;;1.80;81.90;;;;;;5037579;28;20070;-82
2023/12/04 12:12:47;;;;;;;4.40;2.03;;;1.80;83.20;;;;;;5037160;28;20045;-83
2023/12/04 12:15:13;;;;;;;5.55;2.30;;;1.80;82.90;;;;;;5036965;28;20056;-83
2023/12/04 12:17:40;;;;;;;4.93;2.08;;;1.80;82.30;;;;;;5062022;28;20043;-82
2023/12/04 12:20:08;;;;;;;4.50;2.22;;;1.80;82.40;;;;;;5053797;28;20029;-82
2023/12/04 12:22:36;;;;;;;5.00;2.63;;;1.80;83.10;;;;;;5055877;28;20053;-82
2023/12/04 12:25:04;;;;;;;5.13;2.72;;;1.90;81.70;;;;;;5060882;28;20033;-82
2023/12/04 12:27:30;;;;;;;4.82;2.40;;;1.90;82.80;;;;;;5044640;28;20524;-82
2023/12/04 12:29:56;;;;;;;4.55;2.40;;;1.90;83.90;;;;;;5070450;28;20418;-83
2023/12/04 12:32:22;;;;;;;4.60;2.75;;;1.90;84.10;;;;;;5053366;28;20084;-82
2023/12/04 12:34:47;;;;;;;4.40;2.40;;;1.90;82.80;;;;;;5071150;28;20036;-81
2023/12/04 12:37:13;;;;;;;4.13;2.33;;;1.90;83.10;;;;;;5039801;28;20033;-81
2023/12/04 12:39:39;;;;;;;5.43;2.60;;;1.90;83.30;;;;;;5035868;28;20025;-82
2023/12/04 12:42:05;;;;;;;4.65;2.05;;;2.00;81.10;;;;;;5052624;28;20030;-82
2023/12/04 12:44:41;;;;;;;4.50;2.45;;;2.00;82.90;;;;;;5053117;28;20158;-81
2023/12/04 12:47:07;;;;;;;5.60;2.63;;;2.10;80.80;;;;;;5068740;28;20377;-82
2023/12/04 12:49:36;;;;;;;5.53;2.65;;;2.10;80.90;;;;;;5071400;28;20025;-81